Terminal Aerodrome Forecast
Issued by NWS

Home | Current Version | Previous Version | Text Only | Print | Product List | Glossary On
Versions: 1 2 3 4 5 6 7 8 9 10 11 12 13 14 15 16 17 18 19 20 21 22
188
FTUS43 KAPX 250525
TAFMBL
TAF
KMBL 250525Z 2506/2606 VRB03KT P6SM VCSH BKN050
     FM251000 29004KT P6SM VCSH BKN035
     FM251500 29006KT P6SM BKN035
     FM251600 29008KT P6SM BKN080
     FM260000 26005KT P6SM BKN060=

USA.gov is the U.S. government's official web portal to all federal, state and local government web resources and services.